sensor_id;sensor_type;location;lat;lon;timestamp;pressure;altitude;pressure_sealevel;temperature;humidity
60427;BME280;46274;47.168;27.604;2023-02-14T00:05:46;101093.19;;;3.95;71.45
60427;BME280;46274;47.168;27.604;2023-02-14T00:11:52;101090.16;;;4.00;70.79
60427;BME280;46274;47.168;27.604;2023-02-14T00:18:04;101097.13;;;4.15;70.16
60427;BME280;46274;47.168;27.604;2023-02-14T00:24:12;101119.00;;;4.34;69.46
60427;BME280;46274;47.168;27.604;2023-02-14T00:30:15;101095.78;;;4.33;69.39
60427;BME280;46274;47.168;27.604;2023-02-14T00:36:21;100997.41;;;3.84;68.43
60427;BME280;46274;47.168;27.604;2023-02-14T00:42:26;100879.34;;;2.99;68.42
60427;BME280;46274;47.168;27.604;2023-02-14T00:48:35;101086.25;;;4.29;68.43
60427;BME280;46274;47.168;27.604;2023-02-14T00:54:41;101058.72;;;4.14;68.25
60427;BME280;46274;47.168;27.604;2023-02-14T01:00:44;100972.78;;;3.66;68.23
60427;BME280;46274;47.168;27.604;2023-02-14T01:06:46;101074.03;;;4.25;67.99
60427;BME280;46274;47.168;27.604;2023-02-14T01:12:55;101035.47;;;4.02;67.48
60427;BME280;46274;47.168;27.604;2023-02-14T01:19:02;101068.38;;;4.17;67.81
60427;BME280;46274;47.168;27.604;2023-02-14T01:25:06;101081.38;;;4.47;66.75
60427;BME280;46274;47.168;27.604;2023-02-14T01:31:21;101026.75;;;4.11;66.70
60427;BME280;46274;47.168;27.604;2023-02-14T01:37:34;101072.81;;;4.42;67.25
60427;BME280;46274;47.168;27.604;2023-02-14T01:50:29;101057.59;;;4.30;66.81
60427;BME280;46274;47.168;27.604;2023-02-14T01:56:41;101070.47;;;4.37;66.92
60427;BME280;46274;47.168;27.604;2023-02-14T02:02:47;101031.34;;;4.22;66.79
60427;BME280;46274;47.168;27.604;2023-02-14T02:15:22;101065.31;;;4.34;67.38
60427;BME280;46274;47.168;27.604;2023-02-14T02:47:57;101052.28;;;4.17;67.33
60427;BME280;46274;47.168;27.604;2023-02-14T02:54:22;101067.88;;;4.36;65.88
60427;BME280;46274;47.168;27.604;2023-02-14T03:00:30;101045.84;;;4.20;66.65
60427;BME280;46274;47.168;27.604;2023-02-14T03:06:52;100906.19;;;3.49;65.88
60427;BME280;46274;47.168;27.604;2023-02-14T03:26:23;101044.72;;;4.35;64.13
60427;BME280;46274;47.168;27.604;2023-02-14T03:32:44;101037.50;;;4.35;63.97
60427;BME280;46274;47.168;27.604;2023-02-14T03:39:09;100921.41;;;3.48;64.96
60427;BME280;46274;47.168;27.604;2023-02-14T03:45:45;100788.91;;;2.79;65.08
60427;BME280;46274;47.168;27.604;2023-02-14T03:51:54;101024.41;;;4.07;66.18
60427;BME280;46274;47.168;27.604;2023-02-14T03:58:07;100977.25;;;3.91;65.81
60427;BME280;46274;47.168;27.604;2023-02-14T04:04:12;100906.41;;;3.46;65.96
60427;BME280;46274;47.168;27.604;2023-02-14T04:10:19;101012.50;;;4.11;66.29
60427;BME280;46274;47.168;27.604;2023-02-14T04:16:35;101027.88;;;3.96;67.23
60427;BME280;46274;47.168;27.604;2023-02-14T04:22:57;101036.44;;;4.01;66.79
60427;BME280;46274;47.168;27.604;2023-02-14T04:29:06;101033.84;;;4.00;67.15
60427;BME280;46274;47.168;27.604;2023-02-14T04:35:09;101025.28;;;3.94;67.58
60427;BME280;46274;47.168;27.604;2023-02-14T04:41:11;100994.13;;;3.81;67.35
60427;BME280;46274;47.168;27.604;2023-02-14T04:47:21;101015.28;;;4.09;66.45
60427;BME280;46274;47.168;27.604;2023-02-14T04:53:23;101013.69;;;4.07;66.22
60427;BME280;46274;47.168;27.604;2023-02-14T04:59:38;100917.13;;;3.46;65.83
60427;BME280;46274;47.168;27.604;2023-02-14T05:05:40;100945.38;;;3.63;66.13
60427;BME280;46274;47.168;27.604;2023-02-14T05:11:51;100993.34;;;3.91;66.14
60427;BME280;46274;47.168;27.604;2023-02-14T05:17:58;100998.94;;;3.88;66.19
60427;BME280;46274;47.168;27.604;2023-02-14T05:24:14;101016.50;;;4.05;66.06
60427;BME280;46274;47.168;27.604;2023-02-14T05:30:17;101012.22;;;3.90;66.73
60427;BME280;46274;47.168;27.604;2023-02-14T05:36:35;101031.41;;;3.97;66.84
60427;BME280;46274;47.168;27.604;2023-02-14T05:42:47;100987.06;;;3.67;66.97
60427;BME280;46274;47.168;27.604;2023-02-14T05:49:06;101050.50;;;3.92;67.60
60427;BME280;46274;47.168;27.604;2023-02-14T05:55:11;101059.28;;;4.07;66.96
60427;BME280;46274;47.168;27.604;2023-02-14T06:01:21;100950.66;;;3.39;67.58
60427;BME280;46274;47.168;27.604;2023-02-14T06:07:29;101054.88;;;4.06;67.53
60427;BME280;46274;47.168;27.604;2023-02-14T06:13:31;100930.19;;;3.25;68.18
60427;BME280;46274;47.168;27.604;2023-02-14T06:19:43;101058.63;;;4.16;67.73
60427;BME280;46274;47.168;27.604;2023-02-14T06:25:55;101040.78;;;4.15;67.85
60427;BME280;46274;47.168;27.604;2023-02-14T06:32:00;101030.91;;;4.15;68.24
60427;BME280;46274;47.168;27.604;2023-02-14T06:38:37;100798.94;;;2.88;68.14
60427;BME280;46274;47.168;27.604;2023-02-14T06:44:39;101010.63;;;4.24;68.13
60427;BME280;46274;47.168;27.604;2023-02-14T06:50:41;100992.38;;;4.29;68.25
60427;BME280;46274;47.168;27.604;2023-02-14T06:57:04;100947.84;;;4.03;68.30
60427;BME280;46274;47.168;27.604;2023-02-14T07:03:14;100925.13;;;3.96;68.18
60427;BME280;46274;47.168;27.604;2023-02-14T07:09:18;100991.22;;;4.45;68.41
60427;BME280;46274;47.168;27.604;2023-02-14T07:15:35;100888.44;;;4.20;68.59
60427;BME280;46274;47.168;27.604;2023-02-14T07:21:41;100979.97;;;4.99;68.38
60427;BME280;46274;47.168;27.604;2023-02-14T07:27:43;101000.72;;;5.08;68.10
60427;BME280;46274;47.168;27.604;2023-02-14T07:34:03;100977.94;;;4.78;68.34
60427;BME280;46274;47.168;27.604;2023-02-14T07:40:15;100884.56;;;4.24;68.96
60427;BME280;46274;47.168;27.604;2023-02-14T07:46:29;100997.50;;;4.92;68.88
60427;BME280;46274;47.168;27.604;2023-02-14T07:52:41;101002.53;;;4.96;68.58
60427;BME280;46274;47.168;27.604;2023-02-14T07:58:45;101007.28;;;4.93;68.79
60427;BME280;46274;47.168;27.604;2023-02-14T08:04:50;100921.03;;;4.27;68.78
60427;BME280;46274;47.168;27.604;2023-02-14T08:10:53;101010.16;;;4.78;69.03
60427;BME280;46274;47.168;27.604;2023-02-14T08:17:12;100900.50;;;4.26;69.12
60427;BME280;46274;47.168;27.604;2023-02-14T08:23:20;100958.56;;;4.51;69.34
60427;BME280;46274;47.168;27.604;2023-02-14T08:29:35;100926.91;;;4.32;69.48
60427;BME280;46274;47.168;27.604;2023-02-14T08:35:46;100983.13;;;4.57;69.40
60427;BME280;46274;47.168;27.604;2023-02-14T08:42:05;100981.53;;;4.55;69.41
60427;BME280;46274;47.168;27.604;2023-02-14T08:48:28;100988.72;;;4.54;69.35
60427;BME280;46274;47.168;27.604;2023-02-14T08:54:43;101031.47;;;4.69;69.68
60427;BME280;46274;47.168;27.604;2023-02-14T09:00:46;101049.69;;;4.76;69.55
60427;BME280;46274;47.168;27.604;2023-02-14T09:07:05;100923.28;;;3.96;69.41
60427;BME280;46274;47.168;27.604;2023-02-14T09:13:10;101067.50;;;4.77;69.51
60427;BME280;46274;47.168;27.604;2023-02-14T09:19:12;101037.66;;;4.58;69.76
60427;BME280;46274;47.168;27.604;2023-02-14T09:25:20;100963.25;;;4.12;70.24
60427;BME280;46274;47.168;27.604;2023-02-14T09:31:25;101025.41;;;4.54;70.59
60427;BME280;46274;47.168;27.604;2023-02-14T09:37:43;101018.50;;;4.38;70.71
60427;BME280;46274;47.168;27.604;2023-02-14T09:44:06;101031.34;;;4.46;70.74
60427;BME280;46274;47.168;27.604;2023-02-14T09:50:53;101037.94;;;4.66;71.21
60427;BME280;46274;47.168;27.604;2023-02-14T10:16:36;101023.31;;;4.70;72.10
60427;BME280;46274;47.168;27.604;2023-02-14T10:29:23;101018.00;;;4.81;72.16
60427;BME280;46274;47.168;27.604;2023-02-14T10:35:54;101019.34;;;4.87;72.08
60427;BME280;46274;47.168;27.604;2023-02-14T10:48:33;100953.75;;;4.43;72.83
60427;BME280;46274;47.168;27.604;2023-02-14T10:54:45;100986.41;;;4.61;72.61
60427;BME280;46274;47.168;27.604;2023-02-14T11:01:13;100844.03;;;3.92;72.95
60427;BME280;46274;47.168;27.604;2023-02-14T11:07:20;100923.47;;;4.30;72.50
60427;BME280;46274;47.168;27.604;2023-02-14T11:13:33;100933.38;;;4.41;72.82
60427;BME280;46274;47.168;27.604;2023-02-14T11:19:45;101000.03;;;4.82;72.73
60427;BME280;46274;47.168;27.604;2023-02-14T11:26:08;101026.56;;;4.98;72.46
60427;BME280;46274;47.168;27.604;2023-02-14T11:32:24;101035.63;;;4.97;72.14
60427;BME280;46274;47.168;27.604;2023-02-14T11:38:38;100928.22;;;4.26;72.13
60427;BME280;46274;47.168;27.604;2023-02-14T11:44:54;101004.66;;;4.80;72.49
60427;BME280;46274;47.168;27.604;2023-02-14T11:51:08;101022.84;;;4.76;72.62
60427;BME280;46274;47.168;27.604;2023-02-14T11:57:36;100943.09;;;4.30;72.85
60427;BME280;46274;47.168;27.604;2023-02-14T12:03:44;101019.69;;;4.82;73.19
60427;BME280;46274;47.168;27.604;2023-02-14T13:15:50;101023.91;;;4.98;74.02
60427;BME280;46274;47.168;27.604;2023-02-14T13:28:48;100971.81;;;4.65;73.43
60427;BME280;46274;47.168;27.604;2023-02-14T13:34:58;101022.44;;;4.94;73.25
60427;BME280;46274;47.168;27.604;2023-02-14T13:41:02;100965.94;;;4.60;73.66
60427;BME280;46274;47.168;27.604;2023-02-14T13:53:44;101006.06;;;4.86;74.01
60427;BME280;46274;47.168;27.604;2023-02-14T14:00:21;101007.72;;;4.75;74.22
60427;BME280;46274;47.168;27.604;2023-02-14T14:06:27;100972.25;;;4.59;74.42
60427;BME280;46274;47.168;27.604;2023-02-14T14:18:44;100997.19;;;4.72;74.26
60427;BME280;46274;47.168;27.604;2023-02-14T14:25:04;100989.03;;;4.74;74.01
60427;BME280;46274;47.168;27.604;2023-02-14T14:31:20;100939.97;;;4.36;73.68
60427;BME280;46274;47.168;27.604;2023-02-14T14:37:49;100752.50;;;3.26;73.35
60427;BME280;46274;47.168;27.604;2023-02-14T14:44:03;100970.06;;;4.64;73.06
60427;BME280;46274;47.168;27.604;2023-02-14T14:50:27;100990.47;;;4.67;72.85
60427;BME280;46274;47.168;27.604;2023-02-14T14:56:48;100932.69;;;4.26;72.99
60427;BME280;46274;47.168;27.604;2023-02-14T15:03:06;100705.81;;;2.80;72.64
60427;BME280;46274;47.168;27.604;2023-02-14T15:09:30;100985.16;;;4.54;72.54
60427;BME280;46274;47.168;27.604;2023-02-14T15:15:49;100981.34;;;4.45;72.49
60427;BME280;46274;47.168;27.604;2023-02-14T15:22:04;100890.22;;;3.71;72.81
60427;BME280;46274;47.168;27.604;2023-02-14T15:28:27;100883.22;;;3.58;72.62
60427;BME280;46274;47.168;27.604;2023-02-14T15:34:39;100634.25;;;1.96;72.87
60427;BME280;46274;47.168;27.604;2023-02-14T15:41:03;100937.63;;;3.71;72.91
60427;BME280;46274;47.168;27.604;2023-02-14T15:47:05;100987.97;;;3.91;72.84
60427;BME280;46274;47.168;27.604;2023-02-14T15:53:30;100968.47;;;3.77;72.59
60427;BME280;46274;47.168;27.604;2023-02-14T15:59:58;100981.13;;;3.87;72.36
60427;BME280;46274;47.168;27.604;2023-02-14T16:06:05;100825.41;;;2.80;72.12
60427;BME280;46274;47.168;27.604;2023-02-14T16:18:58;100979.03;;;3.67;71.80
60427;BME280;46274;47.168;27.604;2023-02-14T16:25:25;100856.75;;;2.78;72.31
60427;BME280;46274;47.168;27.604;2023-02-14T16:31:55;100959.09;;;3.45;72.35
60427;BME280;46274;47.168;27.604;2023-02-14T16:38:18;100996.91;;;3.54;72.83
60427;BME280;46274;47.168;27.604;2023-02-14T16:44:25;100950.91;;;3.23;72.78
60427;BME280;46274;47.168;27.604;2023-02-14T16:50:27;100906.63;;;2.92;73.08
60427;BME280;46274;47.168;27.604;2023-02-14T17:03:20;101027.38;;;3.40;73.16
60427;BME280;46274;47.168;27.604;2023-02-14T17:09:39;100854.44;;;2.21;73.36
60427;BME280;46274;47.168;27.604;2023-02-14T17:15:54;100984.81;;;3.10;72.74
60427;BME280;46274;47.168;27.604;2023-02-14T17:22:00;100959.75;;;2.85;72.91
60427;BME280;46274;47.168;27.604;2023-02-14T17:28:19;101056.22;;;3.36;72.90
60427;BME280;46274;47.168;27.604;2023-02-14T17:34:40;101010.88;;;3.08;73.02
60427;BME280;46274;47.168;27.604;2023-02-14T17:40:47;100831.03;;;1.84;73.10
60427;BME280;46274;47.168;27.604;2023-02-14T17:46:49;101069.13;;;3.17;73.39
60427;BME280;46274;47.168;27.604;2023-02-14T17:52:56;101077.63;;;3.36;73.04
60427;BME280;46274;47.168;27.604;2023-02-14T17:59:13;101049.84;;;3.12;73.36
60427;BME280;46274;47.168;27.604;2023-02-14T18:05:15;101092.19;;;3.32;72.98
60427;BME280;46274;47.168;27.604;2023-02-14T18:11:21;101087.59;;;3.34;73.17
60427;BME280;46274;47.168;27.604;2023-02-14T18:17:27;101106.97;;;3.38;73.12
60427;BME280;46274;47.168;27.604;2023-02-14T18:23:31;101111.16;;;3.29;73.35
60427;BME280;46274;47.168;27.604;2023-02-14T18:30:11;101121.78;;;3.31;73.57
60427;BME280;46274;47.168;27.604;2023-02-14T18:36:19;101137.72;;;3.32;73.44
60427;BME280;46274;47.168;27.604;2023-02-14T18:42:32;101131.63;;;3.30;73.49
60427;BME280;46274;47.168;27.604;2023-02-14T18:48:45;101122.81;;;3.15;73.56
60427;BME280;46274;47.168;27.604;2023-02-14T18:54:56;101133.53;;;3.15;73.45
60427;BME280;46274;47.168;27.604;2023-02-14T19:01:11;101155.00;;;3.28;73.83
60427;BME280;46274;47.168;27.604;2023-02-14T19:07:17;101128.16;;;3.15;73.77
60427;BME280;46274;47.168;27.604;2023-02-14T19:13:33;101057.94;;;2.84;73.04
60427;BME280;46274;47.168;27.604;2023-02-14T19:19:38;100989.69;;;2.37;72.94
60427;BME280;46274;47.168;27.604;2023-02-14T19:25:47;100981.81;;;2.22;73.31
60427;BME280;46274;47.168;27.604;2023-02-14T19:31:51;101173.66;;;3.42;73.29
60427;BME280;46274;47.168;27.604;2023-02-14T19:37:58;101077.94;;;2.79;73.15
60427;BME280;46274;47.168;27.604;2023-02-14T19:44:13;101070.63;;;2.81;72.97
60427;BME280;46274;47.168;27.604;2023-02-14T19:50:18;101181.34;;;3.34;73.30
60427;BME280;46274;47.168;27.604;2023-02-14T19:56:28;101185.00;;;3.33;73.13
60427;BME280;46274;47.168;27.604;2023-02-14T20:02:31;101163.38;;;3.09;73.58
60427;BME280;46274;47.168;27.604;2023-02-14T20:08:51;101180.47;;;3.21;73.00
60427;BME280;46274;47.168;27.604;2023-02-14T20:14:59;101186.66;;;3.21;73.46
60427;BME280;46274;47.168;27.604;2023-02-14T20:21:29;101197.47;;;3.20;73.02
60427;BME280;46274;47.168;27.604;2023-02-14T20:27:37;101206.06;;;3.25;72.95
60427;BME280;46274;47.168;27.604;2023-02-14T20:33:41;101121.91;;;2.75;72.61
60427;BME280;46274;47.168;27.604;2023-02-14T20:39:49;101175.25;;;3.05;72.78
60427;BME280;46274;47.168;27.604;2023-02-14T20:45:51;101223.56;;;3.31;72.86
60427;BME280;46274;47.168;27.604;2023-02-14T20:51:56;101221.84;;;3.30;72.70
60427;BME280;46274;47.168;27.604;2023-02-14T20:57:59;101194.22;;;3.15;72.46
60427;BME280;46274;47.168;27.604;2023-02-14T21:04:10;101248.47;;;3.45;72.61
60427;BME280;46274;47.168;27.604;2023-02-14T21:10:17;101129.72;;;2.78;72.71
60427;BME280;46274;47.168;27.604;2023-02-14T21:16:25;101097.41;;;2.54;72.19
60427;BME280;46274;47.168;27.604;2023-02-14T21:22:28;101227.41;;;3.26;72.59
60427;BME280;46274;47.168;27.604;2023-02-14T21:28:35;101207.13;;;3.22;71.75
60427;BME280;46274;47.168;27.604;2023-02-14T21:34:37;101023.16;;;1.89;72.59
60427;BME280;46274;47.168;27.604;2023-02-14T21:40:49;101243.59;;;3.38;71.87
60427;BME280;46274;47.168;27.604;2023-02-14T21:46:53;101263.63;;;3.32;72.42
60427;BME280;46274;47.168;27.604;2023-02-14T21:53:01;101282.31;;;3.19;72.88
60427;BME280;46274;47.168;27.604;2023-02-14T21:59:06;101296.38;;;3.23;72.95
60427;BME280;46274;47.168;27.604;2023-02-14T22:05:18;101304.59;;;3.20;72.98
60427;BME280;46274;47.168;27.604;2023-02-14T22:11:22;101188.84;;;2.46;73.06
60427;BME280;46274;47.168;27.604;2023-02-14T22:17:26;101142.38;;;2.20;72.86
60427;BME280;46274;47.168;27.604;2023-02-14T22:23:30;101311.97;;;3.16;72.87
60427;BME280;46274;47.168;27.604;2023-02-14T22:29:46;101286.47;;;2.96;72.76
60427;BME280;46274;47.168;27.604;2023-02-14T22:35:53;101297.56;;;2.90;73.33
60427;BME280;46274;47.168;27.604;2023-02-14T22:41:58;101327.00;;;3.04;73.14
60427;BME280;46274;47.168;27.604;2023-02-14T22:48:06;101217.69;;;2.55;72.81
60427;BME280;46274;47.168;27.604;2023-02-14T22:54:10;101312.53;;;3.21;72.40
60427;BME280;46274;47.168;27.604;2023-02-14T23:00:15;101169.19;;;2.18;72.63
60427;BME280;46274;47.168;27.604;2023-02-14T23:06:23;101312.56;;;3.07;72.64
60427;BME280;46274;47.168;27.604;2023-02-14T23:12:35;101319.84;;;3.05;72.72
60427;BME280;46274;47.168;27.604;2023-02-14T23:18:55;101290.53;;;2.89;72.62
60427;BME280;46274;47.168;27.604;2023-02-14T23:25:17;101287.84;;;2.89;72.68
60427;BME280;46274;47.168;27.604;2023-02-14T23:31:28;101236.97;;;2.60;72.78
60427;BME280;46274;47.168;27.604;2023-02-14T23:37:31;101221.34;;;2.54;72.47
60427;BME280;46274;47.168;27.604;2023-02-14T23:43:34;101312.38;;;3.10;72.39
60427;BME280;46274;47.168;27.604;2023-02-14T23:49:38;101315.91;;;2.96;72.58
60427;BME280;46274;47.168;27.604;2023-02-14T23:55:40;101315.56;;;2.74;72.91
